Omodos — 3FQX3 — position and weather

sailwx.info

Track history (hours):
 
Tides and Currents Weather Stations Pressure Air Temp Water Temp Dewpoint Dewpoint Depression Visibility Wind Speed Wind Dir Waves Ship Positions

Omodos

Last reported at 2018-Feb-10 20:41 UTC. Time now 2018-Feb-24 22:02 UTC.
Position N 09°11' W 079°53'.
Warning: this ship's position is 14 days out of date.

Length 183 m; draft 10.7 m.

Type: Tanker. MMSI: 370153000.

Date/timePositionNaut miles runAvg speedWind from/ knotsBaromVisibWave heightAir tempDewpointWater temp
2018-Feb-10 20:41N 09°11' W 079°53'311.5
2018-Feb-10 20:25N 09°13' W 079°55'1 1.7
2018-Feb-10 19:58N 09°13' W 079°56'0 0.1
2018-Feb-10 19:24N 09°13' W 079°56'0 0.0
2018-Feb-10 18:09N 09°13' W 079°56'0 0.1
2018-Feb-10 17:57N 09°13' W 079°56'0 0.0
2018-Feb-10 17:21N 09°13' W 079°56'0 0.0
2018-Feb-10 16:48N 09°13' W 079°56'0 0.0
2018-Feb-10 16:21N 09°13' W 079°56'0 0.0
2018-Feb-10 16:00N 09°13' W 079°56'0 0.0
2018-Feb-10 15:24N 09°13' W 079°56'0 0.0
2018-Feb-10 10:51N 09°13' W 079°56'0 0.0
2018-Feb-10 08:21N 09°13' W 079°56'0 0.0
2018-Feb-10 07:51N 09°13' W 079°56'0 0.0
2018-Feb-10 05:02N 09°13' W 079°56'0 0.4
2018-Feb-10 05:00N 09°13' W 079°56'1 1.7
2018-Feb-10 04:26N 09°14' W 079°55'2 5.5
2018-Feb-10 04:00N 09°16' W 079°55'0 0.7
2018-Feb-10 03:30N 09°16' W 079°55'0 0.5
2018-Feb-10 03:00N 09°17' W 079°55'0 0.4
2018-Feb-10 02:30N 09°17' W 079°55'0 0.5
2018-Feb-10 02:00N 09°17' W 079°55'1 2.5
2018-Feb-10 01:30N 09°18' W 079°55'2 4.2
2018-Feb-10 01:00N 09°20' W 079°55'2 4.4
2018-Feb-10 00:30N 09°23' W 079°55'0 0.5
2018-Feb-09 23:59N 09°22' W 079°56'0 0.0
2018-Feb-09 23:29N 09°22' W 079°56'0 0.0
2018-Feb-09 22:59N 09°22' W 079°56'0 0.0
2018-Feb-09 22:44N 09°22' W 079°56'0 0.0
2018-Feb-09 16:30N 09°22' W 079°56'0 0.9
2018-Feb-09 16:00N 09°23' W 079°55'3 5.9
2018-Feb-09 15:30N 09°25' W 079°56'2 4.4
2018-Feb-09 15:00N 09°27' W 079°57'0 0.0
2018-Feb-08 01:28N 09°27' W 079°57'0 0.0
2018-Feb-08 00:58N 09°27' W 079°57'0 0.0
2018-Feb-08 00:28N 09°27' W 079°57'0 0.0
2018-Feb-07 23:55N 09°27' W 079°57'0 0.0
2018-Feb-07 23:25N 09°27' W 079°57'0 0.0
2018-Feb-07 22:55N 09°27' W 079°57'0 0.0
2018-Feb-07 22:28N 09°27' W 079°57'0 0.0
2018-Feb-07 21:58N 09°27' W 079°57'0 0.0
2018-Feb-07 21:28N 09°27' W 079°57'0 0.0
2018-Feb-07 09:28N 09°27' W 079°57'0 0.0
2018-Feb-07 08:58N 09°27' W 079°57'0 0.1
2018-Feb-07 08:28N 09°27' W 079°57'  
Track history (hours):
 
Tides and Currents Weather Stations Pressure Air Temp Water Temp Dewpoint Dewpoint Depression Visibility Wind Speed Wind Dir Waves Ship Positions

Omodos

Last reported at 2018-Feb-10 20:41 UTC. Time now 2018-Feb-24 22:02 UTC.
Position N 09°11' W 079°53'.
Warning: this ship's position is 14 days out of date.

Length 183 m; draft 10.7 m.

Type: Tanker. MMSI: 370153000.

Date/timePositionNaut miles runAvg speedWind from/ knotsBaromVisibWave heightAir tempDewpointWater temp
2018-Feb-10 20:41N 09°11' W 079°53'311.5
2018-Feb-10 20:25N 09°13' W 079°55'1 1.7
2018-Feb-10 19:58N 09°13' W 079°56'0 0.1
2018-Feb-10 19:24N 09°13' W 079°56'0 0.0
2018-Feb-10 18:09N 09°13' W 079°56'0 0.1
2018-Feb-10 17:57N 09°13' W 079°56'0 0.0
2018-Feb-10 17:21N 09°13' W 079°56'0 0.0
2018-Feb-10 16:48N 09°13' W 079°56'0 0.0
2018-Feb-10 16:21N 09°13' W 079°56'0 0.0
2018-Feb-10 16:00N 09°13' W 079°56'0 0.0
2018-Feb-10 15:24N 09°13' W 079°56'0 0.0
2018-Feb-10 10:51N 09°13' W 079°56'0 0.0
2018-Feb-10 08:21N 09°13' W 079°56'0 0.0
2018-Feb-10 07:51N 09°13' W 079°56'0 0.0
2018-Feb-10 05:02N 09°13' W 079°56'0 0.4
2018-Feb-10 05:00N 09°13' W 079°56'1 1.7
2018-Feb-10 04:26N 09°14' W 079°55'2 5.5
2018-Feb-10 04:00N 09°16' W 079°55'0 0.7
2018-Feb-10 03:30N 09°16' W 079°55'0 0.5
2018-Feb-10 03:00N 09°17' W 079°55'0 0.4
2018-Feb-10 02:30N 09°17' W 079°55'0 0.5
2018-Feb-10 02:00N 09°17' W 079°55'1 2.5
2018-Feb-10 01:30N 09°18' W 079°55'2 4.2
2018-Feb-10 01:00N 09°20' W 079°55'2 4.4
2018-Feb-10 00:30N 09°23' W 079°55'0 0.5
2018-Feb-09 23:59N 09°22' W 079°56'0 0.0
2018-Feb-09 23:29N 09°22' W 079°56'0 0.0
2018-Feb-09 22:59N 09°22' W 079°56'0 0.0
2018-Feb-09 22:44N 09°22' W 079°56'0 0.0
2018-Feb-09 16:30N 09°22' W 079°56'0 0.9
2018-Feb-09 16:00N 09°23' W 079°55'3 5.9
2018-Feb-09 15:30N 09°25' W 079°56'2 4.4
2018-Feb-09 15:00N 09°27' W 079°57'0 0.0
2018-Feb-08 01:28N 09°27' W 079°57'0 0.0
2018-Feb-08 00:58N 09°27' W 079°57'0 0.0
2018-Feb-08 00:28N 09°27' W 079°57'0 0.0
2018-Feb-07 23:55N 09°27' W 079°57'0 0.0
2018-Feb-07 23:25N 09°27' W 079°57'0 0.0
2018-Feb-07 22:55N 09°27' W 079°57'0 0.0
2018-Feb-07 22:28N 09°27' W 079°57'0 0.0
2018-Feb-07 21:58N 09°27' W 079°57'0 0.0
2018-Feb-07 21:28N 09°27' W 079°57'0 0.0
2018-Feb-07 09:28N 09°27' W 079°57'0 0.0
2018-Feb-07 08:58N 09°27' W 079°57'0 0.1
2018-Feb-07 08:28N 09°27' W 079°57'  

Dump ship's entire track history